createdAt,value
2018-04-26T00:02:00.704Z,98320.72
2018-04-26T00:04:28.226Z,98319.24
2018-04-26T00:06:55.758Z,98315.81
2018-04-26T00:09:23.275Z,98309.23
2018-04-26T00:11:50.747Z,98317.23
2018-04-26T00:14:18.247Z,98315.39
2018-04-26T00:16:45.814Z,98318.98
2018-04-26T00:19:13.303Z,98326.77
2018-04-26T00:21:40.808Z,98331.16
2018-04-26T00:24:08.292Z,98329.83
2018-04-26T00:26:35.773Z,98333.31
2018-04-26T00:29:03.251Z,98329.72
2018-04-26T00:31:30.749Z,98329.80
2018-04-26T00:33:58.216Z,98334.73
2018-04-26T00:36:25.706Z,98331.57
2018-04-26T00:38:53.268Z,98330.81
2018-04-26T00:41:20.756Z,98322.25
2018-04-26T00:43:48.241Z,98326.77
2018-04-26T00:46:15.733Z,98324.86
2018-04-26T00:48:43.272Z,98321.60
2018-04-26T00:51:10.802Z,98320.48
2018-04-26T00:53:38.427Z,98319.63
2018-04-26T00:56:05.913Z,98318.02
2018-04-26T00:58:33.408Z,98311.89
2018-04-26T01:01:00.979Z,98321.78
2018-04-26T01:03:28.479Z,98323.34
2018-04-26T01:05:56.012Z,98322.91
2018-04-26T01:08:23.501Z,98330.70
2018-04-26T01:10:50.964Z,98334.58
2018-04-26T01:13:18.433Z,98335.31
2018-04-26T01:15:46.074Z,98328.59
2018-04-26T01:18:13.588Z,98330.77
2018-04-26T01:20:41.094Z,98335.16
2018-04-26T01:23:08.638Z,98334.30
2018-04-26T01:25:36.132Z,98339.41
2018-04-26T01:28:03.620Z,98342.86
2018-04-26T01:30:31.104Z,98335.70
2018-04-26T01:32:58.583Z,98343.03
2018-04-26T01:35:26.041Z,98346.09
2018-04-26T01:37:53.562Z,98350.13
2018-04-26T01:40:21.078Z,98347.55
2018-04-26T01:42:48.628Z,98348.63
2018-04-26T01:45:16.044Z,98345.89
2018-04-26T01:47:43.528Z,98339.09
2018-04-26T01:50:11.035Z,98352.25
2018-04-26T01:52:38.556Z,98351.92
2018-04-26T01:55:06.068Z,98353.95
2018-04-26T01:57:33.596Z,98358.35
2018-04-26T02:00:01.318Z,98363.98
2018-04-26T02:02:28.837Z,98356.70
2018-04-26T02:04:56.419Z,98358.38
2018-04-26T02:07:24.058Z,98360.23
2018-04-26T02:09:51.549Z,98367.55
2018-04-26T02:12:19.039Z,98371.52
2018-04-26T02:14:46.525Z,98375.91
2018-04-26T02:17:14.023Z,98379.80
2018-04-26T02:19:41.511Z,98377.17
2018-04-26T02:22:09.047Z,98380.89
2018-04-26T02:24:36.537Z,98381.00
2018-04-26T02:27:04.053Z,98382.69
2018-04-26T02:29:31.539Z,98374.22
2018-04-26T02:31:59.012Z,98367.20
2018-04-26T02:34:26.528Z,98365.48
2018-04-26T02:36:54.036Z,98362.41
2018-04-26T02:39:21.525Z,98356.51
2018-04-26T02:41:48.998Z,98361.11
2018-04-26T02:44:16.495Z,98365.77
2018-04-26T02:46:44.102Z,98370.47
2018-04-26T02:49:11.607Z,98376.39
2018-04-26T02:51:39.311Z,98366.04
2018-04-26T02:54:06.837Z,98364.70
2018-04-26T02:56:34.363Z,98373.33
2018-04-26T02:59:01.838Z,98378.50
2018-04-26T03:01:29.399Z,98371.91
2018-04-26T03:03:56.897Z,98368.84
2018-04-26T03:06:24.433Z,98359.60
2018-04-26T03:08:51.971Z,98364.73
2018-04-26T03:11:19.466Z,98375.31
2018-04-26T03:13:46.967Z,98383.48
2018-04-26T03:16:14.451Z,98383.33
2018-04-26T03:18:41.955Z,98384.83
2018-04-26T03:21:09.487Z,98391.06
2018-04-26T03:23:36.979Z,98393.19
2018-04-26T03:26:04.476Z,98388.11
2018-04-26T03:28:31.982Z,98405.49
2018-04-26T03:30:59.570Z,98402.38
2018-04-26T03:33:26.982Z,98404.52
2018-04-26T03:35:54.531Z,98408.98
2018-04-26T03:38:22.060Z,98411.05
2018-04-26T03:40:49.578Z,98408.16
2018-04-26T03:43:17.071Z,98409.71
2018-04-26T03:45:44.565Z,98408.70
2018-04-26T03:48:12.075Z,98416.83
2018-04-26T03:50:39.677Z,98424.57
2018-04-26T03:53:07.243Z,98425.15
2018-04-26T03:55:34.732Z,98426.80
2018-04-26T03:58:02.218Z,98425.04
2018-04-26T04:00:41.691Z,98417.58
2018-04-26T04:03:21.106Z,98420.61
2018-04-26T04:06:11.552Z,98430.98
2018-04-26T04:08:39.044Z,98432.07
2018-04-26T04:11:06.549Z,98430.53
2018-04-26T04:13:34.226Z,98435.10
2018-04-26T04:16:01.730Z,98447.55
2018-04-26T04:18:29.241Z,98449.72
2018-04-26T04:20:56.723Z,98454.36
2018-04-26T04:23:24.204Z,98452.14
2018-04-26T04:25:51.717Z,98449.60
2018-04-26T04:28:19.196Z,98455.45
2018-04-26T04:30:46.670Z,98453.14
2018-04-26T04:33:14.159Z,98451.84
2018-04-26T04:35:41.717Z,98455.94
2018-04-26T04:38:09.195Z,98458.19
2018-04-26T04:40:36.702Z,98458.09
2018-04-26T04:43:04.184Z,98462.27
2018-04-26T04:45:31.724Z,98455.23
2018-04-26T04:47:59.215Z,98457.62
2018-04-26T04:50:26.712Z,98466.74
2018-04-26T04:52:54.220Z,98470.75
2018-04-26T04:55:21.744Z,98473.83
2018-04-26T04:57:49.316Z,98482.80
2018-04-26T05:00:16.790Z,98481.55
2018-04-26T05:02:44.288Z,98485.67
2018-04-26T05:05:11.791Z,98493.14
2018-04-26T05:07:39.335Z,98489.20
2018-04-26T05:10:06.837Z,98496.61
2018-04-26T05:12:34.309Z,98500.16
2018-04-26T05:15:01.824Z,98494.39
2018-04-26T05:17:29.402Z,98496.59
2018-04-26T05:19:56.899Z,98495.94
2018-04-26T05:22:24.418Z,98502.83
2018-04-26T05:24:51.916Z,98498.91
2018-04-26T05:27:19.414Z,98500.44
2018-04-26T05:29:46.877Z,98498.78
2018-04-26T05:32:14.344Z,98503.53
2018-04-26T05:34:41.885Z,98507.21
2018-04-26T05:37:09.381Z,98501.63
2018-04-26T05:39:36.886Z,98500.70
2018-04-26T05:42:04.361Z,98504.47
2018-04-26T05:44:31.867Z,98504.21
2018-04-26T05:46:59.350Z,98508.29
2018-04-26T05:49:26.860Z,98507.96
2018-04-26T05:51:58.657Z,98506.48
2018-04-26T05:54:26.145Z,98515.46
2018-04-26T05:56:53.638Z,98523.64
2018-04-26T05:59:21.137Z,98526.20
2018-04-26T06:01:48.613Z,98527.11
2018-04-26T06:04:16.105Z,98534.77
2018-04-26T06:06:43.570Z,98538.85
2018-04-26T06:09:11.073Z,98538.50
2018-04-26T06:11:38.574Z,98537.63
2018-04-26T06:14:06.220Z,98537.25
2018-04-26T06:16:33.709Z,98542.81
2018-04-26T06:19:01.206Z,98536.78
2018-04-26T06:21:28.688Z,98541.84
2018-04-26T06:23:56.173Z,98538.17
2018-04-26T06:26:23.660Z,98545.02
2018-04-26T06:28:51.253Z,98539.11
2018-04-26T06:31:18.793Z,98539.31
2018-04-26T06:33:46.299Z,98541.67
2018-04-26T06:36:13.789Z,98545.02
2018-04-26T06:38:41.288Z,98548.77
2018-04-26T06:41:08.805Z,98548.52
2018-04-26T06:43:36.285Z,98547.53
2018-04-26T06:46:03.762Z,98555.84
2018-04-26T06:48:31.270Z,98561.00
2018-04-26T06:50:58.774Z,98561.33
2018-04-26T06:53:26.356Z,98573.77
2018-04-26T06:55:53.800Z,98564.88
2018-04-26T06:58:21.298Z,98570.77
2018-04-26T07:00:48.787Z,98573.88
2018-04-26T07:03:16.279Z,98578.98
2018-04-26T07:05:43.787Z,98561.12
2018-04-26T07:08:11.288Z,98573.72
2018-04-26T07:10:38.798Z,98572.78
2018-04-26T07:13:06.291Z,98589.83
2018-04-26T07:15:33.783Z,98584.52
2018-04-26T07:18:01.279Z,98583.07
2018-04-26T07:20:28.739Z,98589.51
2018-04-26T07:22:56.225Z,98583.80
2018-04-26T07:25:23.702Z,98590.31
2018-04-26T07:27:51.217Z,98590.78
2018-04-26T07:30:18.689Z,98596.02
2018-04-26T07:32:46.168Z,98596.81
2018-04-26T07:35:13.661Z,98601.96
2018-04-26T07:37:41.147Z,98610.84
2018-04-26T07:40:08.648Z,98612.77
2018-04-26T07:42:36.283Z,98624.98
2018-04-26T07:45:03.785Z,98631.80
2018-04-26T07:47:31.351Z,98628.06
2018-04-26T07:49:58.838Z,98633.88
2018-04-26T07:52:26.328Z,98632.14
2018-04-26T07:54:53.870Z,98634.59
2018-04-26T07:57:21.385Z,98635.63
2018-04-26T07:59:48.883Z,98630.59
2018-04-26T08:02:16.388Z,98640.05
2018-04-26T08:04:43.881Z,98632.74
2018-04-26T08:07:11.382Z,98628.52
2018-04-26T08:09:38.902Z,98631.70
2018-04-26T08:12:06.570Z,98626.05
2018-04-26T08:14:34.032Z,98641.87
2018-04-26T08:17:01.519Z,98639.92
2018-04-26T08:19:29.856Z,98643.09
2018-04-26T08:21:57.355Z,98644.20
2018-04-26T08:24:24.928Z,98646.13
2018-04-26T08:26:52.426Z,98644.66
2018-04-26T08:29:20.125Z,98645.86
2018-04-26T08:31:47.714Z,98650.09
2018-04-26T08:34:15.195Z,98651.41
2018-04-26T08:36:42.687Z,98651.46
2018-04-26T08:39:10.192Z,98652.39
2018-04-26T08:41:37.704Z,98655.89
2018-04-26T08:44:05.214Z,98657.45
2018-04-26T08:46:32.703Z,98653.98
2018-04-26T08:49:00.219Z,98646.00
2018-04-26T08:51:27.709Z,98653.27
2018-04-26T08:53:55.192Z,98656.52
2018-04-26T08:56:22.761Z,98658.78
2018-04-26T08:58:50.292Z,98664.12
2018-04-26T09:01:17.791Z,98669.32
2018-04-26T09:03:45.296Z,98660.63
2018-04-26T09:06:12.827Z,98666.26
2018-04-26T09:08:40.328Z,98657.84
2018-04-26T09:11:07.858Z,98680.27
2018-04-26T09:13:35.356Z,98660.72
2018-04-26T09:16:02.855Z,98662.91
2018-04-26T09:18:30.337Z,98646.16
2018-04-26T09:20:57.825Z,98650.19
2018-04-26T09:23:25.326Z,98639.66
2018-04-26T09:25:52.827Z,98647.38
2018-04-26T09:28:20.347Z,98649.44
2018-04-26T09:30:47.855Z,98647.03
2018-04-26T09:33:15.356Z,98643.84
2018-04-26T09:35:42.860Z,98643.30
2018-04-26T09:38:10.370Z,98640.95
2018-04-26T09:40:37.856Z,98635.92
2018-04-26T09:43:05.352Z,98635.66
2018-04-26T09:45:32.822Z,98634.06
2018-04-26T09:48:00.372Z,98636.47
2018-04-26T09:50:27.858Z,98640.81
2018-04-26T09:52:55.323Z,98645.28
2018-04-26T09:55:22.841Z,98641.20
2018-04-26T09:57:50.385Z,98637.36
2018-04-26T10:00:23.753Z,98632.10
2018-04-26T10:02:51.231Z,98632.77
2018-04-26T10:05:18.723Z,98624.66
2018-04-26T10:07:46.204Z,98621.46
2018-04-26T10:10:26.777Z,98627.54
2018-04-26T10:12:54.330Z,98623.87
2018-04-26T10:15:40.192Z,98620.83
2018-04-26T10:18:15.591Z,98609.97
2018-04-26T10:21:04.100Z,98604.59
2018-04-26T10:23:33.998Z,98609.25
2018-04-26T10:26:01.665Z,98609.81
2018-04-26T10:28:29.159Z,98618.88
2018-04-26T10:30:56.877Z,98611.83
2018-04-26T10:33:24.363Z,98615.29
2018-04-26T10:35:51.873Z,98606.28
2018-04-26T10:38:19.411Z,98616.88
2018-04-26T10:40:46.916Z,98627.70
2018-04-26T10:43:14.413Z,98634.38
2018-04-26T10:45:41.941Z,98616.44
2018-04-26T10:48:09.533Z,98611.00
2018-04-26T10:50:37.035Z,98600.48
2018-04-26T10:53:04.588Z,98609.58
2018-04-26T10:55:32.062Z,98613.46
2018-04-26T10:57:59.563Z,98609.41
2018-04-26T11:00:27.076Z,98615.58
2018-04-26T11:02:54.612Z,98624.48
2018-04-26T11:05:22.128Z,98599.37
2018-04-26T11:07:49.616Z,98595.88
2018-04-26T11:10:17.108Z,98597.69
2018-04-26T11:12:44.625Z,98598.27
2018-04-26T11:15:12.170Z,98584.25
2018-04-26T11:17:39.676Z,98595.38
2018-04-26T11:20:07.189Z,98583.00
2018-04-26T11:22:34.873Z,98593.00
2018-04-26T11:25:02.376Z,98589.95
2018-04-26T11:27:29.868Z,98591.50
2018-04-26T11:29:57.482Z,98593.58
2018-04-26T11:32:25.067Z,98591.05
2018-04-26T11:34:52.625Z,98593.84
2018-04-26T11:37:20.196Z,98588.66
2018-04-26T11:39:47.741Z,98577.69
2018-04-26T11:42:15.316Z,98581.02
2018-04-26T11:44:42.808Z,98583.63
2018-04-26T11:47:10.299Z,98569.37
2018-04-26T11:49:37.828Z,98570.67
2018-04-26T11:52:05.340Z,98565.45
2018-04-26T11:54:32.902Z,98565.14
2018-04-26T11:57:00.441Z,98562.13
2018-04-26T11:59:28.058Z,98577.08
2018-04-26T12:01:55.562Z,98572.90
2018-04-26T12:04:23.059Z,98565.66
2018-04-26T12:06:50.561Z,98574.39
2018-04-26T12:09:18.072Z,98566.91
2018-04-26T12:11:45.565Z,98580.05
2018-04-26T12:14:13.042Z,98584.11
2018-04-26T12:16:40.557Z,98578.60
2018-04-26T12:19:08.162Z,98578.64
2018-04-26T12:21:35.660Z,98581.73
2018-04-26T12:24:03.176Z,98577.40
2018-04-26T12:26:30.673Z,98576.22
2018-04-26T12:28:58.151Z,98578.52
2018-04-26T12:31:25.720Z,98562.02
2018-04-26T12:33:53.232Z,98554.18
2018-04-26T12:36:20.717Z,98560.93
2018-04-26T12:38:48.193Z,98579.72
2018-04-26T12:41:15.872Z,98574.19
2018-04-26T12:43:43.391Z,98562.91
2018-04-26T12:46:10.908Z,98552.67
2018-04-26T12:48:38.416Z,98560.14
2018-04-26T12:51:05.924Z,98568.40
2018-04-26T12:53:33.425Z,98568.16
2018-04-26T12:56:00.926Z,98568.86
2018-04-26T12:58:28.560Z,98568.41
2018-04-26T13:00:56.041Z,98564.19
2018-04-26T13:03:23.534Z,98561.66
2018-04-26T13:05:51.037Z,98557.78
2018-04-26T13:08:18.534Z,98557.79
2018-04-26T13:10:46.044Z,98551.20
2018-04-26T13:13:13.630Z,98551.77
2018-04-26T13:15:41.133Z,98544.14
2018-04-26T13:18:08.639Z,98552.48
2018-04-26T13:20:36.158Z,98550.56
2018-04-26T13:23:03.672Z,98542.07
2018-04-26T13:25:31.230Z,98538.49
2018-04-26T13:27:58.834Z,98537.11
2018-04-26T13:30:26.399Z,98544.95
2018-04-26T13:32:53.885Z,98543.58
2018-04-26T13:35:21.408Z,98539.92
2018-04-26T13:37:48.921Z,98540.58
2018-04-26T13:40:16.433Z,98542.16
2018-04-26T13:42:44.071Z,98540.23
2018-04-26T13:45:11.697Z,98546.33
2018-04-26T13:47:39.201Z,98535.04
2018-04-26T13:50:06.759Z,98543.33
2018-04-26T13:52:34.268Z,98548.89
2018-04-26T13:55:01.818Z,98539.13
2018-04-26T13:57:29.575Z,98531.45
2018-04-26T13:59:57.091Z,98541.05
2018-04-26T14:02:24.613Z,98540.48
2018-04-26T14:04:52.105Z,98518.26
2018-04-26T14:07:19.605Z,98532.97
2018-04-26T14:09:47.139Z,98524.28
2018-04-26T14:12:14.668Z,98541.27
2018-04-26T14:14:42.171Z,98529.70
2018-04-26T14:17:09.676Z,98528.36
2018-04-26T14:19:39.298Z,98525.86
2018-04-26T14:22:06.838Z,98520.70
2018-04-26T14:24:34.267Z,98522.05
2018-04-26T14:27:01.765Z,98515.84
2018-04-26T14:29:29.298Z,98523.11
2018-04-26T14:31:56.783Z,98521.47
2018-04-26T14:34:24.282Z,98523.81
2018-04-26T14:36:51.903Z,98517.23
2018-04-26T14:39:19.420Z,98523.77
2018-04-26T14:41:46.918Z,98521.22
2018-04-26T14:44:14.394Z,98518.39
2018-04-26T14:46:42.098Z,98525.24
2018-04-26T14:49:09.616Z,98524.57
2018-04-26T14:51:37.361Z,98529.77
2018-04-26T14:54:04.851Z,98526.08
2018-04-26T14:56:32.636Z,98523.39
2018-04-26T14:59:00.209Z,98519.53
2018-04-26T15:01:27.807Z,98512.96
2018-04-26T15:03:55.439Z,98512.80
2018-04-26T15:06:22.946Z,98515.65
2018-04-26T15:08:50.435Z,98519.08
2018-04-26T15:11:17.944Z,98511.69
2018-04-26T15:13:45.916Z,98513.73
2018-04-26T15:16:13.415Z,98504.96
2018-04-26T15:18:41.641Z,98503.30
2018-04-26T15:21:09.131Z,98502.27
2018-04-26T15:23:37.138Z,98505.57
2018-04-26T15:26:04.634Z,98501.63
2018-04-26T15:28:32.270Z,98489.69
2018-04-26T15:30:59.762Z,98488.14
2018-04-26T15:33:27.268Z,98491.33
2018-04-26T15:35:54.791Z,98497.48
2018-04-26T15:38:22.270Z,98489.38
2018-04-26T15:40:49.785Z,98492.48
2018-04-26T15:43:17.422Z,98488.48
2018-04-26T15:45:44.908Z,98479.45
2018-04-26T15:48:12.375Z,98478.13
2018-04-26T15:50:54.746Z,98475.23
2018-04-26T15:53:34.182Z,98484.56
2018-04-26T15:56:16.811Z,98487.51
2018-04-26T16:02:15.425Z,98486.30
2018-04-26T16:04:54.663Z,98479.45
2018-04-26T16:07:49.580Z,98497.09
2018-04-26T16:10:29.000Z,98482.64
2018-04-26T16:13:14.216Z,98485.05
2018-04-26T16:15:59.264Z,98472.98
2018-04-26T16:18:43.753Z,98481.83
2018-04-26T16:21:28.889Z,98490.98
2018-04-26T16:27:43.037Z,98497.31
2018-04-26T16:30:22.953Z,98494.36
2018-04-26T16:33:05.261Z,98500.80
2018-04-26T16:35:44.598Z,98493.86
2018-04-26T16:38:23.937Z,98493.75
2018-04-26T16:40:51.543Z,98506.80
2018-04-26T16:43:19.056Z,98497.50
2018-04-26T16:45:46.712Z,98497.63
2018-04-26T16:48:14.342Z,98500.03
2018-04-26T16:50:42.043Z,98502.62
2018-04-26T16:53:09.558Z,98497.27
2018-04-26T16:55:37.079Z,98500.94
2018-04-26T16:58:04.627Z,98504.48
2018-04-26T17:00:32.140Z,98494.59
2018-04-26T17:02:59.717Z,98499.09
2018-04-26T17:05:27.250Z,98499.84
2018-04-26T17:07:54.733Z,98497.23
2018-04-26T17:10:22.235Z,98500.31
2018-04-26T17:12:49.754Z,98507.42
2018-04-26T17:15:17.341Z,98500.27
2018-04-26T17:17:44.879Z,98494.54
2018-04-26T17:20:12.370Z,98491.93
2018-04-26T17:22:40.113Z,98490.91
2018-04-26T17:25:07.583Z,98497.34
2018-04-26T17:27:35.095Z,98512.63
2018-04-26T17:30:02.678Z,98507.71
2018-04-26T17:32:30.260Z,98501.22
2018-04-26T17:34:58.846Z,98514.91
2018-04-26T17:37:26.352Z,98507.11
2018-04-26T17:39:53.854Z,98512.34
2018-04-26T17:42:21.535Z,98514.39
2018-04-26T17:44:49.159Z,98521.86
2018-04-26T17:47:16.733Z,98518.47
2018-04-26T17:49:44.216Z,98518.77
2018-04-26T17:52:11.748Z,98515.73
2018-04-26T17:54:39.341Z,98519.92
2018-04-26T17:57:06.845Z,98531.88
2018-04-26T17:59:34.352Z,98529.81
2018-04-26T18:02:01.833Z,98527.38
2018-04-26T18:04:29.347Z,98529.70
2018-04-26T18:06:56.872Z,98544.58
2018-04-26T18:09:24.377Z,98539.03
2018-04-26T18:11:51.919Z,98534.21
2018-04-26T18:14:19.423Z,98538.55
2018-04-26T18:16:49.345Z,98548.22
2018-04-26T18:19:16.857Z,98547.25
2018-04-26T18:21:44.399Z,98549.38
2018-04-26T18:24:11.886Z,98549.38
2018-04-26T18:26:39.391Z,98549.74
2018-04-26T18:29:11.833Z,98545.79
2018-04-26T18:31:43.320Z,98542.25
2018-04-26T18:34:17.162Z,98549.56
2018-04-26T18:36:46.815Z,98546.13
2018-04-26T18:39:14.297Z,98544.41
2018-04-26T18:41:41.783Z,98547.30
2018-04-26T18:44:09.288Z,98548.47
2018-04-26T18:46:36.802Z,98554.07
2018-04-26T18:49:04.302Z,98558.28
2018-04-26T18:51:31.795Z,98557.16
2018-04-26T18:53:59.462Z,98556.95
2018-04-26T18:56:26.993Z,98560.02
2018-04-26T18:58:54.486Z,98566.14
2018-04-26T19:01:22.876Z,98560.94
2018-04-26T19:04:10.383Z,98564.30
2018-04-26T19:09:41.819Z,98568.61
2018-04-26T19:12:10.012Z,98571.54
2018-04-26T19:14:37.495Z,98575.90
2018-04-26T19:17:04.997Z,98579.20
2018-04-26T19:19:32.484Z,98585.56
2018-04-26T19:22:00.161Z,98587.24
2018-04-26T19:24:27.842Z,98584.72
2018-04-26T19:26:55.352Z,98589.17
2018-04-26T19:29:22.866Z,98599.30
2018-04-26T19:31:50.449Z,98595.17
2018-04-26T19:34:17.946Z,98600.05
2018-04-26T19:36:45.514Z,98604.47
2018-04-26T19:39:13.010Z,98603.56
2018-04-26T19:41:40.493Z,98600.51
2018-04-26T19:44:08.005Z,98604.33
2018-04-26T19:46:35.522Z,98612.42
2018-04-26T19:49:03.043Z,98607.03
2018-04-26T19:51:30.513Z,98607.89
2018-04-26T19:53:58.014Z,98600.89
2018-04-26T19:56:25.503Z,98606.27
2018-04-26T19:58:53.106Z,98597.95
2018-04-26T20:01:20.765Z,98600.55
2018-04-26T20:03:48.241Z,98603.71
2018-04-26T20:06:15.759Z,98598.64
2018-04-26T20:08:43.437Z,98604.23
2018-04-26T20:11:10.934Z,98597.61
2018-04-26T20:13:38.487Z,98597.29
2018-04-26T20:16:05.976Z,98602.20
2018-04-26T20:18:33.491Z,98597.55
2018-04-26T20:21:01.051Z,98593.31
2018-04-26T20:23:28.651Z,98595.82
2018-04-26T20:25:56.665Z,98595.52
2018-04-26T20:28:24.397Z,98589.70
2018-04-26T20:30:51.922Z,98592.37
2018-04-26T20:33:19.514Z,98596.48
2018-04-26T20:35:47.048Z,98597.00
2018-04-26T20:38:14.527Z,98605.59
2018-04-26T20:40:42.105Z,98603.66
2018-04-26T20:43:09.612Z,98598.92
2018-04-26T20:45:37.143Z,98594.19
2018-04-26T20:48:06.162Z,98598.94
2018-04-26T20:50:33.794Z,98595.52
2018-04-26T20:53:01.277Z,98595.05
2018-04-26T20:55:28.763Z,98593.50
2018-04-26T20:57:56.263Z,98590.36
2018-04-26T21:00:25.985Z,98590.47
2018-04-26T21:02:53.536Z,98584.95
2018-04-26T21:05:21.166Z,98586.02
2018-04-26T21:07:48.762Z,98589.80
2018-04-26T21:10:16.307Z,98582.83
2018-04-26T21:12:45.471Z,98582.33
2018-04-26T21:15:13.224Z,98574.96
2018-04-26T21:17:45.198Z,98571.62
2018-04-26T21:20:13.192Z,98569.01
2018-04-26T21:22:40.812Z,98574.05
2018-04-26T21:25:08.398Z,98567.68
2018-04-26T21:27:35.968Z,98570.47
2018-04-26T21:30:03.538Z,98572.56
2018-04-26T21:32:31.107Z,98575.12
2018-04-26T21:34:58.721Z,98579.98
2018-04-26T21:37:26.351Z,98575.67
2018-04-26T21:39:53.877Z,98577.04
2018-04-26T21:42:22.018Z,98573.23
2018-04-26T21:44:49.604Z,98573.06
2018-04-26T21:47:17.130Z,98578.27
2018-04-26T21:49:44.094Z,98571.43
2018-04-26T21:52:17.318Z,98571.95
2018-04-26T21:54:50.584Z,98573.63
2018-04-26T21:57:23.700Z,98574.80
2018-04-26T21:59:57.289Z,98576.12
2018-04-26T22:02:24.339Z,98569.02
2018-04-26T22:07:53.761Z,98571.33
2018-04-26T22:10:21.327Z,98569.52
2018-04-26T22:12:48.922Z,98568.01
2018-04-26T22:15:16.470Z,98565.12
2018-04-26T22:17:44.026Z,98563.31
2018-04-26T22:20:11.567Z,98563.56
2018-04-26T22:22:39.124Z,98557.53
2018-04-26T22:25:06.686Z,98565.86
2018-04-26T22:27:34.343Z,98555.99
2018-04-26T22:30:01.918Z,98556.02
2018-04-26T22:32:29.485Z,98551.58
2018-04-26T22:34:56.993Z,98558.32
2018-04-26T22:37:24.635Z,98553.23
2018-04-26T22:39:52.523Z,98555.20
2018-04-26T22:42:20.055Z,98549.69
2018-04-26T22:44:47.726Z,98551.17
2018-04-26T22:47:15.277Z,98552.33
2018-04-26T22:49:42.851Z,98549.07
2018-04-26T22:52:11.006Z,98548.17
2018-04-26T22:54:39.514Z,98540.87
2018-04-26T22:57:07.077Z,98547.45
2018-04-26T22:59:34.596Z,98545.22
2018-04-26T23:02:02.148Z,98544.23
2018-04-26T23:04:29.898Z,98540.71
2018-04-26T23:06:57.537Z,98547.36
2018-04-26T23:09:25.076Z,98546.53
2018-04-26T23:11:52.640Z,98540.97
2018-04-26T23:14:20.213Z,98540.53
2018-04-26T23:16:47.797Z,98532.25
2018-04-26T23:19:15.354Z,98536.11
2018-04-26T23:21:42.898Z,98532.97
2018-04-26T23:24:10.524Z,98533.45
2018-04-26T23:26:38.198Z,98532.58
2018-04-26T23:29:05.755Z,98543.03
2018-04-26T23:31:33.344Z,98529.14
2018-04-26T23:34:00.876Z,98536.29
2018-04-26T23:36:28.440Z,98529.41
2018-04-26T23:38:55.981Z,98528.97
2018-04-26T23:41:23.562Z,98528.60
2018-04-26T23:43:51.116Z,98532.65
2018-04-26T23:46:18.670Z,98530.97
2018-04-26T23:48:46.210Z,98530.86
2018-04-26T23:51:13.779Z,98528.55
2018-04-26T23:53:41.332Z,98527.23
2018-04-26T23:56:08.876Z,98522.84
2018-04-26T23:58:36.441Z,98523.83
